createdAt,value
2022-11-20T00:06:32.007Z,5.50
2022-11-20T00:16:33.270Z,5.03
2022-11-20T00:26:34.520Z,4.90
2022-11-20T00:36:35.751Z,4.40
2022-11-20T00:46:37.100Z,5.70
2022-11-20T00:56:38.503Z,5.20
2022-11-20T01:06:39.774Z,5.18
2022-11-20T01:16:41.166Z,4.97
2022-11-20T01:26:42.467Z,4.47
2022-11-20T01:36:43.752Z,5.10
2022-11-20T01:46:45.050Z,5.22
2022-11-20T01:56:49.355Z,5.03
2022-11-20T02:06:50.656Z,6.38
2022-11-20T02:16:51.927Z,4.82
2022-11-20T02:26:56.038Z,4.97
2022-11-20T02:36:59.751Z,5.00
2022-11-20T02:47:01.151Z,5.05
2022-11-20T02:57:04.621Z,4.75
2022-11-20T03:07:06.087Z,5.20
2022-11-20T03:17:07.521Z,4.80
2022-11-20T03:27:08.791Z,4.93
2022-11-20T03:37:11.160Z,5.15
2022-11-20T03:47:13.523Z,5.30
2022-11-20T03:57:14.775Z,5.70
2022-11-20T04:07:16.098Z,4.97
2022-11-20T04:17:17.437Z,5.43
2022-11-20T04:27:18.757Z,5.22
2022-11-20T04:37:20.074Z,5.32
2022-11-20T04:47:22.470Z,5.80
2022-11-20T04:57:23.766Z,5.32
2022-11-20T05:07:25.160Z,5.65
2022-11-20T05:17:26.567Z,5.10
2022-11-20T05:27:27.899Z,5.00
2022-11-20T05:37:29.142Z,5.40
2022-11-20T05:47:30.410Z,5.55
2022-11-20T05:57:31.723Z,6.18
2022-11-20T06:07:33.069Z,5.60
2022-11-20T06:17:37.585Z,5.40
2022-11-20T06:27:38.930Z,5.80
2022-11-20T06:37:40.140Z,5.28
2022-11-20T06:47:41.367Z,5.68
2022-11-20T06:57:42.648Z,5.15
2022-11-20T07:07:44.027Z,5.72
2022-11-20T07:17:46.496Z,5.85
2022-11-20T07:27:56.283Z,6.43
2022-11-20T07:37:57.630Z,5.78
2022-11-20T07:47:59.365Z,5.43
2022-11-20T07:58:00.793Z,5.15
2022-11-20T08:18:34.396Z,5.65
2022-11-20T08:28:35.821Z,7.50
2022-11-20T08:38:38.653Z,5.40
2022-11-20T08:48:40.163Z,4.93
2022-11-20T08:59:09.986Z,5.15
2022-11-20T09:09:06.591Z,5.60
2022-11-20T09:29:29.930Z,6.13
2022-11-20T09:39:31.354Z,5.93
2022-11-20T09:49:33.098Z,7.03
2022-11-20T09:59:34.616Z,8.52
2022-11-20T10:09:35.975Z,7.80
2022-11-20T10:19:37.324Z,9.88
2022-11-20T11:11:07.676Z,10.30
2022-11-20T11:21:08.935Z,10.75
2022-11-20T11:31:10.377Z,9.65
2022-11-20T11:41:11.872Z,11.18
2022-11-20T11:51:20.740Z,12.68
2022-11-20T12:01:29.174Z,11.35
2022-11-20T12:11:35.073Z,11.85
2022-11-20T12:21:36.424Z,11.90
2022-11-20T12:31:37.701Z,10.80
2022-11-20T12:41:39.020Z,11.55
2022-11-20T12:51:43.667Z,10.98
2022-11-20T13:01:53.551Z,11.82
2022-11-20T13:12:01.248Z,13.25
2022-11-20T13:22:09.494Z,11.30
2022-11-20T13:32:17.322Z,12.00
2022-11-20T13:42:25.205Z,11.70
2022-11-20T13:52:36.733Z,12.30
2022-11-20T14:02:41.322Z,11.35
2022-11-20T14:12:50.746Z,13.18
2022-11-20T14:22:58.374Z,12.93
2022-11-20T14:32:59.738Z,12.93
2022-11-20T14:43:01.009Z,11.88
2022-11-20T14:53:02.352Z,13.27
2022-11-20T15:03:03.607Z,11.90
2022-11-20T15:13:09.713Z,11.88
2022-11-20T15:23:13.889Z,12.32
2022-11-20T15:33:15.394Z,15.85
2022-11-20T15:43:16.866Z,11.63
2022-11-20T15:53:18.283Z,11.73
2022-11-20T16:03:19.661Z,11.18
2022-11-20T16:13:21.045Z,11.95
2022-11-20T16:23:22.429Z,8.63
2022-11-20T16:33:23.704Z,8.93
2022-11-20T16:43:25.080Z,8.10
2022-11-20T16:53:26.490Z,8.80
2022-11-20T17:03:29.017Z,8.23
2022-11-20T17:13:30.413Z,8.15
2022-11-20T17:23:31.823Z,9.38
2022-11-20T18:05:00.783Z,5.20
2022-11-20T18:15:02.357Z,5.32
2022-11-20T18:56:32.809Z,4.88
2022-11-20T19:06:34.203Z,4.25
2022-11-20T19:16:35.676Z,4.78
2022-11-20T19:26:37.052Z,4.80
2022-11-20T19:36:44.738Z,3.95
2022-11-20T19:57:17.419Z,4.30
2022-11-20T20:07:18.977Z,4.20
2022-11-20T20:17:20.637Z,5.85
2022-11-20T20:27:21.982Z,4.85
2022-11-20T20:37:23.445Z,4.50
2022-11-20T20:47:25.131Z,5.30
2022-11-20T20:57:26.624Z,4.93
2022-11-20T21:07:28.028Z,5.28
2022-11-20T21:17:29.598Z,4.95
2022-11-20T21:27:30.920Z,4.82
2022-11-20T21:37:37.111Z,5.50
2022-11-20T21:47:41.074Z,4.85
2022-11-20T21:57:42.486Z,5.70
2022-11-20T22:07:43.934Z,5.03
2022-11-20T22:17:45.626Z,5.30
2022-11-20T22:27:46.993Z,4.75
2022-11-20T22:37:48.439Z,6.53
2022-11-20T22:58:05.003Z,5.65
2022-11-20T23:08:06.249Z,4.47
2022-11-20T23:18:07.735Z,4.65
2022-11-20T23:28:09.034Z,4.28
2022-11-20T23:38:10.496Z,6.32
2022-11-20T23:48:11.886Z,3.97
2022-11-20T23:58:13.159Z,4.50
